Time;durP1;ratioP1;P1;durP2;ratioP2;P2;SDS_P1;SDS_P2;PMS_P1;PMS_P2;Temp;Humidity;BMP_temperature;BMP_pressure;BME280_temperature;BME280_humidity;BME280_pressure;Samples;Min_cycle;Max_cycle;Signal;HPM_P1;HPM_P2
2023/05/27 00:03:43;;;;;;;19.03;14.83;;;10.00;99.90;;;;;;2610123;54;20985;-74
2023/05/27 00:09:31;;;;;;;16.70;11.77;;;10.00;99.90;;;;;;2609570;54;20182;-73
2023/05/27 00:15:19;;;;;;;18.63;12.20;;;9.80;99.90;;;;;;2608663;54;20134;-73
2023/05/27 00:21:07;;;;;;;17.37;11.60;;;9.70;99.90;;;;;;2611232;54;20234;-73
2023/05/27 00:30:55;;;;;;;26.60;11.80;;;9.60;99.90;;;;;;2611518;54;20403;-74
2023/05/27 00:36:42;;;;;;;22.30;12.73;;;9.60;99.90;;;;;;2613219;54;20499;-73
2023/05/27 00:39:45;;;;;;;23.97;12.23;;;9.50;99.90;;;;;;2613777;39;20790;-73
2023/05/27 00:42:12;;;;;;;16.63;12.10;;;9.50;99.90;;;;;;2610408;47;20185;-73
2023/05/27 00:48:02;;;;;;;35.00;12.00;;;9.40;99.90;;;;;;2609164;54;20403;-73
2023/05/27 00:53:50;;;;;;;15.00;12.27;;;9.30;99.90;;;;;;2609053;54;20941;-73
2023/05/27 00:59:39;;;;;;;20.90;12.83;;;9.20;99.90;;;;;;2610521;54;20123;-73
2023/05/27 01:05:29;;;;;;;15.50;11.10;;;9.00;99.90;;;;;;2611787;54;22601;-71
2023/05/27 01:11:21;;;;;;;21.37;10.40;;;8.90;99.90;;;;;;2610141;54;20404;-72
2023/05/27 01:17:11;;;;;;;15.47;10.70;;;8.90;99.90;;;;;;2609947;54;20399;-72
2023/05/27 01:22:59;;;;;;;16.60;10.90;;;8.80;99.90;;;;;;2611957;39;20991;-72
2023/05/27 01:28:47;;;;;;;16.00;10.43;;;8.80;99.90;;;;;;2610900;31;21079;-72
2023/05/27 01:41:15;;;;;;;20.27;10.80;;;8.70;99.90;;;;;;2610005;54;20493;-71
2023/05/27 01:47:03;;;;;;;24.67;10.80;;;8.60;99.90;;;;;;2610704;54;20426;-71
2023/05/27 01:52:51;;;;;;;14.83;9.77;;;8.70;99.90;;;;;;2611158;54;20134;-71
2023/05/27 01:58:39;;;;;;;15.93;10.07;;;8.60;99.90;;;;;;2612220;54;20388;-73
2023/05/27 02:04:27;;;;;;;20.90;10.23;;;8.60;99.90;;;;;;2611059;54;20238;-72
2023/05/27 02:10:14;;;;;;;17.07;9.53;;;8.50;99.90;;;;;;2610871;54;20138;-71
2023/05/27 02:16:03;;;;;;;20.53;9.17;;;8.40;99.90;;;;;;2610372;54;20154;-71
2023/05/27 02:21:50;;;;;;;16.77;8.67;;;8.30;99.90;;;;;;2609756;54;20130;-71
2023/05/27 02:31:00;;;;;;;14.57;10.07;;;8.30;99.90;;;;;;2614105;54;20628;-73
2023/05/27 02:36:48;;;;;;;15.37;10.30;;;8.10;99.90;;;;;;2612750;54;20359;-71
2023/05/27 02:42:36;;;;;;;21.57;10.83;;;8.00;99.90;;;;;;2611890;54;20212;-72
2023/05/27 02:48:23;;;;;;;24.73;11.07;;;7.90;99.90;;;;;;2610168;54;20652;-71
2023/05/27 02:54:11;;;;;;;11.80;10.23;;;7.80;99.90;;;;;;2605445;54;20134;-72
2023/05/27 02:59:59;;;;;;;23.40;10.70;;;7.90;99.90;;;;;;2613744;39;20519;-71
2023/05/27 03:05:47;;;;;;;15.50;9.90;;;7.90;99.90;;;;;;2612510;54;20135;-72
2023/05/27 03:11:34;;;;;;;22.83;10.30;;;7.80;99.90;;;;;;2610534;54;20188;-71
2023/05/27 03:17:22;;;;;;;16.70;9.70;;;7.70;99.90;;;;;;2609373;54;20142;-71
2023/05/27 03:23:09;;;;;;;23.23;11.00;;;7.60;99.90;;;;;;2609694;54;20126;-72
2023/05/27 03:26:28;;;;;;;21.03;10.63;;;7.60;99.90;;;;;;2608940;39;20828;-72
2023/05/27 03:28:53;;;;;;;22.80;10.33;;;7.60;99.90;;;;;;2609996;54;20671;-71
2023/05/27 03:34:41;;;;;;;20.50;14.03;;;7.50;99.90;;;;;;2610419;54;20953;-71
2023/05/27 03:40:29;;;;;;;20.80;10.50;;;7.40;99.90;;;;;;2609421;54;20246;-71
2023/05/27 03:46:16;;;;;;;23.27;10.07;;;7.40;99.90;;;;;;2610273;54;20178;-71
2023/05/27 03:52:04;;;;;;;16.43;11.20;;;7.50;99.90;;;;;;2610023;54;20130;-71
2023/05/27 03:57:52;;;;;;;29.03;11.77;;;7.50;99.90;;;;;;2608558;54;20800;-71
2023/05/27 04:03:40;;;;;;;18.10;10.97;;;7.50;99.90;;;;;;2609219;54;20231;-72
2023/05/27 04:09:28;;;;;;;24.73;11.03;;;7.50;99.90;;;;;;2610709;54;20969;-70
2023/05/27 04:15:16;;;;;;;29.97;11.87;;;7.60;99.90;;;;;;2610561;54;20769;-72
2023/05/27 04:21:04;;;;;;;16.37;11.37;;;7.70;99.90;;;;;;2610090;39;20943;-71
2023/05/27 04:30:55;;;;;;;19.53;12.20;;;7.80;99.90;;;;;;2609785;54;20375;-72
2023/05/27 04:36:43;;;;;;;31.03;13.43;;;8.00;99.90;;;;;;2608748;54;20415;-71
2023/05/27 04:42:32;;;;;;;30.27;13.07;;;8.20;99.90;;;;;;2608932;54;20466;-71
2023/05/27 04:48:23;;;;;;;17.53;10.90;;;8.50;99.90;;;;;;2609734;54;20402;-71
2023/05/27 04:54:11;;;;;;;20.90;13.43;;;8.80;99.90;;;;;;2609541;54;20523;-72
2023/05/27 05:05:53;;;;;;;25.37;12.80;;;9.40;99.90;;;;;;2610265;54;21009;-72
2023/05/27 05:11:40;;;;;;;22.57;13.63;;;9.60;99.90;;;;;;2606593;54;20426;-71
2023/05/27 05:17:28;;;;;;;17.80;14.07;;;10.30;99.90;;;;;;2612745;54;20142;-71
2023/05/27 05:23:16;;;;;;;20.30;15.27;;;10.60;99.90;;;;;;2612276;54;20125;-71
2023/05/27 05:26:27;;;;;;;31.23;14.97;;;10.60;99.90;;;;;;2612446;54;20427;-71
2023/05/27 05:28:53;;;;;;;18.07;15.13;;;10.50;99.90;;;;;;2613837;54;20414;-72
2023/05/27 05:34:40;;;;;;;16.63;13.73;;;10.60;99.90;;;;;;2610635;54;20234;-71
2023/05/27 05:40:28;;;;;;;16.40;14.80;;;10.70;99.90;;;;;;2613925;39;20568;-72
2023/05/27 05:46:16;;;;;;;23.23;15.23;;;11.60;99.90;;;;;;2610780;54;20163;-71
2023/05/27 05:52:04;;;;;;;17.67;15.30;;;11.90;99.90;;;;;;2613410;39;20521;-72
2023/05/27 05:57:52;;;;;;;21.90;16.60;;;12.70;99.90;;;;;;2612575;39;20713;-72
2023/05/27 06:03:40;;;;;;;27.30;15.87;;;12.50;99.90;;;;;;2612597;54;20154;-71
2023/05/27 06:09:28;;;;;;;17.90;16.00;;;13.10;99.90;;;;;;2614103;54;20122;-71
2023/05/27 06:15:16;;;;;;;16.57;14.67;;;13.10;99.90;;;;;;2613560;54;20830;-72
2023/05/27 06:21:03;;;;;;;20.00;16.07;;;13.80;99.90;;;;;;2613071;39;20537;-71
2023/05/27 06:31:00;;;;;;;23.53;16.93;;;14.00;99.90;;;;;;2612963;54;20877;-72
2023/05/27 06:36:48;;;;;;;35.20;16.93;;;14.00;99.90;;;;;;2613475;54;21198;-71
2023/05/27 06:42:37;;;;;;;17.67;15.70;;;14.40;99.90;;;;;;2613215;54;20464;-71
2023/05/27 06:48:24;;;;;;;20.20;17.40;;;14.90;99.90;;;;;;2611771;54;20461;-72
2023/05/27 06:54:12;;;;;;;19.63;17.73;;;14.70;99.90;;;;;;2613536;54;20123;-72
2023/05/27 07:00:00;;;;;;;19.53;17.47;;;14.40;99.90;;;;;;2613530;54;20481;-72
2023/05/27 07:05:48;;;;;;;19.37;17.93;;;15.30;99.90;;;;;;2612711;54;20130;-72
2023/05/27 07:11:36;;;;;;;20.20;17.67;;;15.80;99.90;;;;;;2613060;54;20154;-71
2023/05/27 07:17:23;;;;;;;21.93;19.53;;;16.10;99.90;;;;;;2613379;54;20119;-71
2023/05/27 07:23:11;;;;;;;20.43;18.37;;;16.10;99.90;;;;;;2610669;54;20177;-73
2023/05/27 07:26:30;;;;;;;20.67;18.87;;;16.30;98.20;;;;;;2609197;54;20439;-72
2023/05/27 07:28:58;;;;;;;21.13;19.00;;;16.50;93.30;;;;;;2612689;47;20178;-72
2023/05/27 07:34:45;;;;;;;21.07;18.00;;;16.80;93.30;;;;;;2612157;54;20366;-72
2023/05/27 07:40:33;;;;;;;20.87;19.23;;;17.00;79.90;;;;;;2611440;54;20649;-75
2023/05/27 07:46:21;;;;;;;21.53;19.47;;;17.20;74.90;;;;;;2611755;54;20366;-72
2023/05/27 07:52:09;;;;;;;21.80;19.70;;;16.70;72.50;;;;;;2611239;54;20146;-72
2023/05/27 07:57:57;;;;;;;21.23;19.30;;;17.30;68.30;;;;;;2609198;54;20923;-71
2023/05/27 08:03:44;;;;;;;20.23;18.40;;;17.80;53.80;;;;;;2612403;54;20139;-71
2023/05/27 08:09:32;;;;;;;21.43;19.43;;;18.30;49.90;;;;;;2611755;54;20142;-72
2023/05/27 08:15:20;;;;;;;20.90;19.00;;;18.90;42.10;;;;;;2610234;54;20138;-70
2023/05/27 08:21:07;;;;;;;19.80;18.27;;;18.00;48.30;;;;;;2611687;54;20122;-71
2023/05/27 08:30:55;;;;;;;20.67;18.97;;;19.10;34.50;;;;;;2610512;54;20387;-71
2023/05/27 08:36:42;;;;;;;21.20;19.10;;;19.50;37.00;;;;;;2611565;54;20941;-72
2023/05/27 08:42:30;;;;;;;21.13;19.27;;;20.20;32.80;;;;;;2611845;54;20134;-71
2023/05/27 08:48:18;;;;;;;20.67;18.67;;;20.10;31.40;;;;;;2612740;54;20173;-72
2023/05/27 08:54:05;;;;;;;20.80;19.00;;;20.40;30.00;;;;;;2610652;54;20166;-72
2023/05/27 08:59:54;;;;;;;19.93;17.83;;;20.10;28.20;;;;;;2610981;54;20363;-72
2023/05/27 09:05:42;;;;;;;21.03;18.47;;;20.50;26.80;;;;;;2611800;39;20465;-72
2023/05/27 09:11:34;;;;;;;19.50;17.53;;;20.00;27.70;;;;;;2611672;54;20226;-71
2023/05/27 09:17:25;;;;;;;20.33;18.23;;;20.70;24.70;;;;;;2613481;54;20396;-71
2023/05/27 09:23:13;;;;;;;19.60;17.73;;;20.70;24.70;;;;;;2609153;54;20399;-72
2023/05/27 09:29:10;;;;;;;20.60;18.90;;;21.20;21.80;;;;;;2608785;54;20147;-72
2023/05/27 09:35:04;;;;;;;20.80;19.07;;;21.30;23.40;;;;;;2610637;39;20684;-72
2023/05/27 09:40:51;;;;;;;20.13;18.20;;;22.10;21.80;;;;;;2611903;54;20483;-73
2023/05/27 09:50:01;;;;;;;20.23;18.37;;;22.10;13.90;;;;;;2612360;54;20478;-72
2023/05/27 09:55:49;;;;;;;18.93;17.30;;;21.70;13.80;;;;;;2610365;54;20387;-70
2023/05/27 10:01:38;;;;;;;19.87;18.13;;;22.30;15.60;;;;;;2611024;39;21008;-72
2023/05/27 10:07:25;;;;;;;19.00;17.60;;;21.60;11.40;;;;;;2610860;39;20935;-72
2023/05/27 10:13:20;;;;;;;19.17;16.80;;;22.00;13.00;;;;;;2609867;54;20403;-73
2023/05/27 10:19:10;;;;;;;19.17;17.77;;;22.70;13.10;;;;;;2612078;54;20391;-72
2023/05/27 10:31:36;;;;;;;19.43;17.97;;;22.70;8.50;;;;;;2611338;54;20448;-70
2023/05/27 10:34:11;;;;;;;19.03;17.37;;;22.30;8.00;;;;;;2612259;54;20407;-72
2023/05/27 10:40:06;;;;;;;18.63;16.83;;;23.00;6.30;;;;;;2610963;54;20383;-71
2023/05/27 10:46:13;;;;;;;18.97;17.60;;;23.00;6.60;;;;;;2610781;54;20367;-72
2023/05/27 10:58:27;;;;;;;17.57;15.87;;;22.50;5.70;;;;;;2611139;47;20479;-70
2023/05/27 11:04:14;;;;;;;18.10;16.67;;;23.70;5.40;;;;;;2610796;39;20503;-71
2023/05/27 11:10:01;;;;;;;17.37;16.23;;;22.80;5.50;;;;;;2610836;54;20815;-71
2023/05/27 11:15:48;;;;;;;18.10;16.63;;;22.70;3.20;;;;;;2609274;54;20254;-72
2023/05/27 11:21:45;;;;;;;18.53;17.23;;;24.20;1.00;;;;;;2609416;54;20163;-74
2023/05/27 11:27:35;;;;;;;19.10;17.70;;;23.70;1.00;;;;;;2612211;54;20424;-70
2023/05/27 11:39:55;;;;;;;19.33;17.60;;;23.70;3.60;;;;;;2613175;54;20989;-71
2023/05/27 11:45:42;;;;;;;19.63;18.03;;;23.60;4.40;;;;;;2614235;39;20671;-71
2023/05/27 11:51:31;;;;;;;18.97;17.60;;;23.70;2.80;;;;;;2612758;54;20161;-71
2023/05/27 11:57:19;;;;;;;20.17;18.33;;;24.20;3.30;;;;;;2613325;54;20394;-72
2023/05/27 12:03:06;;;;;;;19.80;18.20;;;23.70;5.10;;;;;;2613283;54;20146;-72
2023/05/27 12:08:54;;;;;;;19.17;17.87;;;24.10;2.70;;;;;;2614340;54;20158;-75
2023/05/27 12:14:42;;;;;;;19.97;18.20;;;24.60;3.30;;;;;;2613445;54;20139;-76
2023/05/27 12:20:29;;;;;;;19.13;17.33;;;23.80;1.60;;;;;;2614319;54;20134;-76
2023/05/27 12:26:17;;;;;;;17.93;16.60;;;24.10;3.40;;;;;;2612979;54;20994;-75
2023/05/27 12:32:05;;;;;;;18.90;17.30;;;23.90;2.20;;;;;;2613950;54;20490;-75
2023/05/27 12:37:53;;;;;;;17.60;16.20;;;24.30;1.00;;;;;;2614056;54;20154;-76
2023/05/27 12:43:40;;;;;;;18.43;16.93;;;24.60;1.00;;;;;;2614054;54;20165;-75
2023/05/27 12:49:28;;;;;;;19.00;17.30;;;24.30;1.00;;;;;;2613932;54;20121;-74
2023/05/27 12:55:17;;;;;;;17.93;16.87;;;24.30;1.00;;;;;;2610431;54;20689;-75
2023/05/27 13:01:05;;;;;;;18.13;16.63;;;24.80;1.00;;;;;;2608368;54;21406;-77
2023/05/27 13:06:54;;;;;;;18.90;17.70;;;24.40;1.00;;;;;;2609440;54;20539;-76
2023/05/27 13:12:42;;;;;;;19.10;17.70;;;24.70;1.00;;;;;;2613575;54;20383;-75
2023/05/27 13:18:30;;;;;;;18.53;17.30;;;23.70;1.00;;;;;;2612367;54;20162;-77
2023/05/27 13:24:17;;;;;;;18.83;17.53;;;24.50;1.00;;;;;;2609750;54;20146;-76
2023/05/27 13:34:11;;;;;;;18.60;17.07;;;25.40;1.00;;;;;;2608892;54;20499;-76
2023/05/27 13:40:02;;;;;;;18.67;17.40;;;25.20;1.00;;;;;;2608647;54;20406;-75
2023/05/27 13:45:50;;;;;;;18.20;17.00;;;24.20;1.00;;;;;;2608147;39;20604;-77
2023/05/27 13:51:45;;;;;;;19.73;18.33;;;25.20;1.00;;;;;;2613538;54;20154;-76
2023/05/27 13:57:33;;;;;;;19.83;18.10;;;24.80;1.00;;;;;;2614508;54;20351;-75
2023/05/27 14:03:22;;;;;;;20.37;18.90;;;25.00;1.00;;;;;;2614156;54;20162;-75
2023/05/27 14:09:10;;;;;;;18.90;17.57;;;24.70;1.00;;;;;;2614921;39;20810;-74
2023/05/27 14:14:58;;;;;;;18.67;17.37;;;24.80;1.00;;;;;;2614613;46;20403;-74
2023/05/27 14:20:46;;;;;;;17.63;16.43;;;24.70;1.00;;;;;;2614337;54;20162;-74
2023/05/27 14:26:33;;;;;;;18.17;16.97;;;24.70;1.00;;;;;;2614079;54;20644;-74
2023/05/27 14:29:44;;;;;;;17.90;16.67;;;24.70;1.00;;;;;;2612657;54;20431;-74
2023/05/27 14:32:10;;;;;;;18.13;16.70;;;24.10;1.00;;;;;;2613197;54;20220;-74
2023/05/27 14:37:58;;;;;;;18.37;17.07;;;24.50;1.00;;;;;;2614426;54;20146;-74
2023/05/27 14:43:45;;;;;;;18.03;17.00;;;24.60;1.00;;;;;;2614027;54;20135;-74
2023/05/27 14:49:33;;;;;;;18.53;17.20;;;25.00;1.00;;;;;;2614076;54;20157;-73
2023/05/27 14:55:21;;;;;;;19.23;17.50;;;25.10;1.00;;;;;;2615705;54;20153;-74
2023/05/27 15:01:10;;;;;;;17.07;15.97;;;24.90;1.00;;;;;;2614992;54;20158;-73
2023/05/27 15:06:58;;;;;;;17.93;16.43;;;24.80;1.00;;;;;;2615766;54;20390;-73
2023/05/27 15:12:46;;;;;;;18.30;17.07;;;24.40;1.00;;;;;;2615834;54;20161;-74
2023/05/27 15:18:34;;;;;;;19.60;18.20;;;24.50;1.00;;;;;;2615959;54;20195;-74
2023/05/27 15:24:21;;;;;;;17.83;16.63;;;24.90;1.00;;;;;;2616022;54;20644;-73
2023/05/27 15:34:15;;;;;;;18.20;17.10;;;24.80;1.00;;;;;;2615532;54;20503;-74
2023/05/27 15:40:06;;;;;;;18.03;16.83;;;24.80;1.00;;;;;;2614091;54;20475;-73
2023/05/27 15:45:54;;;;;;;20.87;19.50;;;24.50;1.00;;;;;;2615896;54;20411;-74
2023/05/27 15:51:43;;;;;;;19.00;17.47;;;25.10;1.00;;;;;;2615660;54;20125;-74
2023/05/27 15:57:30;;;;;;;18.67;17.03;;;24.70;1.00;;;;;;2614735;54;20395;-74
2023/05/27 16:03:18;;;;;;;18.27;17.17;;;25.20;1.00;;;;;;2615444;39;20556;-74
2023/05/27 16:09:06;;;;;;;19.10;17.33;;;25.50;1.00;;;;;;2614058;54;20169;-74
2023/05/27 16:14:54;;;;;;;18.37;17.27;;;25.10;1.00;;;;;;2613759;39;20247;-73
2023/05/27 16:20:42;;;;;;;20.43;18.57;;;25.40;1.00;;;;;;2614454;54;20407;-75
2023/05/27 16:26:30;;;;;;;18.90;17.50;;;25.50;1.00;;;;;;2613662;39;20539;-73
2023/05/27 16:29:46;;;;;;;19.37;17.97;;;25.10;1.00;;;;;;2614499;54;20419;-74
2023/05/27 16:32:11;;;;;;;18.97;17.87;;;24.50;1.00;;;;;;2614536;54;20666;-73
2023/05/27 16:37:59;;;;;;;19.47;18.27;;;24.60;1.00;;;;;;2614770;54;20169;-73
2023/05/27 16:43:47;;;;;;;18.83;17.90;;;24.30;1.00;;;;;;2611171;54;20177;-74
2023/05/27 16:49:34;;;;;;;20.33;19.03;;;24.30;1.00;;;;;;2614439;54;20165;-73
2023/05/27 16:55:22;;;;;;;19.20;18.10;;;24.30;1.00;;;;;;2612712;54;20130;-74
2023/05/27 17:01:10;;;;;;;20.70;19.50;;;23.70;1.00;;;;;;2613749;54;20656;-75
2023/05/27 17:06:57;;;;;;;20.53;19.10;;;23.50;1.00;;;;;;2614083;54;21462;-74
2023/05/27 17:12:45;;;;;;;21.00;19.40;;;23.50;1.00;;;;;;2614437;54;20154;-73
2023/05/27 17:18:33;;;;;;;19.83;18.73;;;23.40;1.00;;;;;;2614890;54;20162;-74
2023/05/27 17:24:21;;;;;;;21.27;19.97;;;23.00;1.00;;;;;;2613735;31;20630;-73
2023/05/27 17:34:14;;;;;;;20.77;19.20;;;22.40;1.00;;;;;;2614173;54;20430;-74
2023/05/27 17:40:07;;;;;;;21.00;19.70;;;22.20;1.00;;;;;;2614243;54;20419;-73
2023/05/27 17:45:55;;;;;;;21.47;19.97;;;22.00;1.00;;;;;;2614325;54;20945;-74
2023/05/27 17:51:42;;;;;;;22.80;21.20;;;21.90;1.00;;;;;;2614549;54;20153;-74
2023/05/27 17:57:30;;;;;;;30.13;27.57;;;21.60;1.00;;;;;;2614748;39;20541;-72
2023/05/27 18:03:18;;;;;;;21.90;20.30;;;21.60;1.00;;;;;;2614246;54;20669;-72
2023/05/27 18:09:08;;;;;;;19.70;18.60;;;21.40;1.00;;;;;;2614330;54;20149;-72
2023/05/27 18:14:56;;;;;;;20.40;19.10;;;21.30;1.00;;;;;;2614379;54;20423;-72
2023/05/27 18:20:45;;;;;;;21.20;19.30;;;21.10;1.00;;;;;;2614027;54;20130;-71
2023/05/27 18:26:33;;;;;;;20.07;18.70;;;21.00;1.00;;;;;;2613750;54;20418;-72
2023/05/27 18:36:03;;;;;;;19.80;18.40;;;20.80;1.00;;;;;;2612651;54;20435;-71
2023/05/27 18:38:28;;;;;;;19.90;18.60;;;20.70;1.00;;;;;;2612509;54;20423;-71
2023/05/27 18:44:16;;;;;;;20.27;18.93;;;20.50;1.00;;;;;;2612776;39;20720;-71
2023/05/27 18:53:25;;;;;;;20.27;18.77;;;20.20;1.00;;;;;;2612656;54;20366;-71
2023/05/27 18:59:12;;;;;;;20.20;19.00;;;20.00;1.00;;;;;;2612339;39;20805;-72
2023/05/27 19:05:01;;;;;;;19.20;18.20;;;19.70;2.30;;;;;;2612177;54;20374;-71
2023/05/27 19:10:48;;;;;;;19.53;18.20;;;19.30;4.40;;;;;;2613212;54;20993;-71
2023/05/27 19:16:36;;;;;;;20.60;19.47;;;19.10;5.30;;;;;;2613092;54;20155;-71
2023/05/27 19:22:24;;;;;;;19.33;17.97;;;18.90;7.80;;;;;;2613472;54;20444;-71
2023/05/27 19:28:11;;;;;;;19.37;18.27;;;18.80;10.10;;;;;;2613011;54;20673;-72
2023/05/27 19:34:37;;;;;;;18.80;17.70;;;18.40;13.60;;;;;;2614241;54;20198;-71
2023/05/27 19:37:21;;;;;;;18.63;17.50;;;18.30;15.70;;;;;;2614260;31;20830;-72
2023/05/27 19:43:08;;;;;;;18.80;17.60;;;18.20;19.30;;;;;;2613465;54;20383;-71
2023/05/27 19:48:58;;;;;;;18.93;17.70;;;18.00;22.00;;;;;;2615445;54;20189;-70
2023/05/27 19:54:45;;;;;;;18.33;17.23;;;17.80;26.50;;;;;;2614775;54;20403;-71
2023/05/27 20:00:33;;;;;;;18.47;17.17;;;17.60;29.60;;;;;;2613852;54;20150;-72
2023/05/27 20:06:21;;;;;;;18.30;17.10;;;17.40;32.10;;;;;;2614697;54;20154;-71
2023/05/27 20:12:09;;;;;;;19.40;18.10;;;17.30;36.80;;;;;;2614789;54;20139;-71
2023/05/27 20:17:59;;;;;;;20.20;18.60;;;17.00;48.40;;;;;;2613771;54;20126;-71
2023/05/27 20:23:46;;;;;;;18.63;17.53;;;16.70;61.40;;;;;;2614865;54;20430;-72
2023/05/27 20:29:34;;;;;;;18.37;16.87;;;16.50;79.90;;;;;;2611414;54;20134;-71
2023/05/27 20:32:49;;;;;;;17.57;16.37;;;16.30;85.20;;;;;;2611747;54;20423;-71
2023/05/27 20:35:15;;;;;;;17.43;16.13;;;16.10;92.60;;;;;;2612825;54;20157;-72
2023/05/27 20:41:07;;;;;;;17.83;16.83;;;16.20;93.90;;;;;;2614289;39;20638;-71
2023/05/27 20:46:55;;;;;;;19.97;18.60;;;16.00;99.60;;;;;;2613248;54;20949;-71
2023/05/27 20:52:42;;;;;;;18.80;17.60;;;15.70;99.90;;;;;;2613677;39;20515;-72
2023/05/27 20:58:30;;;;;;;18.93;17.50;;;15.50;99.90;;;;;;2612048;54;20126;-72
2023/05/27 21:04:18;;;;;;;17.73;16.50;;;15.50;99.90;;;;;;2611106;54;20142;-71
2023/05/27 21:10:06;;;;;;;18.33;17.10;;;15.40;99.90;;;;;;2613842;54;20155;-71
2023/05/27 21:15:54;;;;;;;19.03;17.53;;;15.40;99.90;;;;;;2611782;54;20395;-71
2023/05/27 21:21:42;;;;;;;19.00;17.67;;;15.20;99.90;;;;;;2613579;54;20410;-71
2023/05/27 21:27:30;;;;;;;17.57;16.07;;;14.90;99.90;;;;;;2613280;54;20126;-71
2023/05/27 21:37:17;;;;;;;18.37;16.90;;;14.70;99.90;;;;;;2612117;54;20387;-71
2023/05/27 21:43:05;;;;;;;17.57;16.20;;;14.60;99.90;;;;;;2612895;54;20415;-70
2023/05/27 21:48:53;;;;;;;16.90;15.50;;;14.30;99.90;;;;;;2613974;54;20154;-72
2023/05/27 21:54:40;;;;;;;17.57;16.10;;;14.30;99.90;;;;;;2614150;54;20122;-71
2023/05/27 22:00:28;;;;;;;18.53;16.73;;;14.10;99.90;;;;;;2614773;54;20138;-72
2023/05/27 22:06:16;;;;;;;17.77;16.17;;;13.90;99.90;;;;;;2612651;54;20407;-72
2023/05/27 22:12:05;;;;;;;16.27;14.93;;;14.00;99.90;;;;;;2612863;54;20394;-71
2023/05/27 22:17:53;;;;;;;17.20;15.60;;;13.90;99.90;;;;;;2613684;39;20507;-71
2023/05/27 22:23:41;;;;;;;16.63;15.10;;;13.70;99.90;;;;;;2614638;54;20154;-71
2023/05/27 22:29:28;;;;;;;17.63;16.03;;;13.50;99.90;;;;;;2611234;54;20134;-72
2023/05/27 22:38:38;;;;;;;17.43;15.97;;;13.30;99.90;;;;;;2611622;54;20438;-73
2023/05/27 22:44:25;;;;;;;18.30;16.23;;;13.10;99.90;;;;;;2610222;54;20688;-72
2023/05/27 22:50:13;;;;;;;16.63;15.00;;;13.00;99.90;;;;;;2611076;54;20157;-72
2023/05/27 22:56:01;;;;;;;22.17;15.80;;;12.90;99.90;;;;;;2610281;54;20186;-72
2023/05/27 23:01:49;;;;;;;16.80;15.10;;;12.90;99.90;;;;;;2610379;54;20134;-73
2023/05/27 23:07:36;;;;;;;16.77;15.47;;;13.00;99.90;;;;;;2610175;54;20375;-72
2023/05/27 23:13:24;;;;;;;14.83;13.20;;;13.00;99.90;;;;;;2609383;54;20672;-73
2023/05/27 23:19:12;;;;;;;16.47;14.93;;;12.80;99.90;;;;;;2610294;54;20134;-72
2023/05/27 23:25:00;;;;;;;15.63;13.63;;;12.80;99.90;;;;;;2606712;54;20134;-71
2023/05/27 23:30:47;;;;;;;15.77;14.17;;;12.60;99.90;;;;;;2612493;54;20126;-71
2023/05/27 23:36:49;;;;;;;19.40;14.60;;;12.40;99.90;;;;;;2612411;54;20878;-72
2023/05/27 23:42:36;;;;;;;16.57;14.87;;;12.30;99.90;;;;;;2611658;46;20674;-71
2023/05/27 23:48:24;;;;;;;16.70;15.00;;;12.20;99.90;;;;;;2602586;54;20390;-71
2023/05/27 23:54:11;;;;;;;17.27;14.43;;;11.90;99.90;;;;;;2608271;54;20171;-72
2023/05/27 23:59:58;;;;;;;15.70;14.30;;;11.80;99.90;;;;;;2609418;54;20185;-71
